Aviation Digital Data Service (ADDS)

Output produced by TAFs form (1000 UTC 23 April 2017)
found at http://www.aviationweather.gov/adds/tafs/
 
METAR text: ZYTX 230930Z 12004MPS CAVOK 10/05 Q1011 NOSIG
Conditions at: ZYTX (SHENYANG/TAOKIAN, CN) observed 0930 UTC 23 April 2017
Temperature: 10.0°C (50°F)
Dewpoint: 5.0°C (41°F) [RH = 71%]
Pressure (altimeter): 29.85 inches Hg (1011.0 mb)
Winds: from the ESE (120 degrees) at 9 MPH (8 knots; 4.2 m/s)
Visibility: 6 or more miles (10+ km)
Ceiling: ceiling and visibility are OK
Clouds: unknown
Weather: no significant weather observed at this time

Forecast for: ZYTX (SHENYANG/TAOKIAN, CN)
Text: TAF ZYTX 230306Z 2306/2406 16004MPS 6000 BKN040 TX19/2306Z TN07/2321Z
Forecast period: 0600 UTC 23 April 2017 to 0600 UTC 24 April 2017
Forecast type: FROM: standard forecast or significant change
Winds: from the SSE (160 degrees) at 9 MPH (8 knots; 4.2 m/s)
Visibility: 4 miles (6 km)
Ceiling: 4000 feet AGL
Clouds: broken clouds at 4000 feet AGL
Weather: no significant weather forecast for this period
Text: TEMPO 2400/2406 -SHRA FEW030CB BKN033
Forecast period: 0000 to 0600 UTC 24 April 2017
Forecast type: TEMPORARY: The following changes expected for less than half the time period
Ceiling: 3300 feet AGL
Clouds: few clouds at 3000 feet AGL
broken clouds at 3300 feet AGL
Weather: -SHRA  (light rain showers)